Rio Grande, Texas
Current Conditions -  °F | °C
As of 4:55 PM on Tuesday 25 Nov 2014 (Local Time) from KEBG Reporting Station
Clear Clear  
Wind Chill: 68°   Ceiling: Unl
Heat Index: 68°   Visibility: 10mi
Dew Point: 28°   Wind: 0mph
Humidity: 22%   Direction: NA
Pressure: 30.29"   Gusts: NA
Location:  26.5735°N, 98.695°W
Report Text: KEBG 252255Z AUTO 00000KT 10SM CLR 20/M02 A3029 RMK AO2 T01991025
Loading
Personal Weather Stations






























Interactive Weather Map New forecast layout! Learn more

10-Day Weather Forecast

Advertisements
Track Severe Weather on mobile